Time;durP1;ratioP1;P1;durP2;ratioP2;P2;SDS_P1;SDS_P2;PMS_P1;PMS_P2;Temp;Humidity;BMP_temperature;BMP_pressure;BME280_temperature;BME280_humidity;BME280_pressure;Samples;Min_cycle;Max_cycle;Signal;HPM_P1;HPM_P2
2023/05/29 00:00:06;;;;;;;5.78;3.40;;;;;;;15.91;60.61;99514.00;330682;28;16476;-82
2023/05/29 00:00:20;;;;;;;5.72;3.40;;;;;;;15.90;60.81;99517.56;329765;29;18357;-82
2023/05/29 00:00:33;;;;;;;5.00;3.33;;;;;;;15.94;60.61;99519.06;329143;29;18470;-82
2023/05/29 00:00:44;;;;;;;6.65;3.45;;;;;;;15.98;60.27;99517.97;333427;29;4466;-82
2023/05/29 00:00:57;;;;;;;7.53;3.63;;;;;;;16.01;60.21;99514.31;331280;29;10010;-82
2023/05/29 00:01:09;;;;;;;7.50;3.67;;;;;;;16.04;60.14;99508.09;332302;29;18080;-82
2023/05/29 00:01:23;;;;;;;5.68;3.63;;;;;;;16.08;60.00;99514.84;330908;28;4558;-82
2023/05/29 00:01:37;;;;;;;5.28;3.40;;;;;;;16.10;59.67;99512.97;329821;28;17479;-82
2023/05/29 00:01:49;;;;;;;5.28;3.05;;;;;;;16.11;59.84;99514.63;329810;28;18425;-82
2023/05/29 00:02:01;;;;;;;6.05;3.25;;;;;;;16.11;59.89;99512.03;331758;29;9160;-81
2023/05/29 00:02:13;;;;;;;6.72;3.33;;;;;;;16.11;59.55;99514.63;336837;28;18064;-81
2023/05/29 00:02:25;;;;;;;6.32;3.50;;;;;;;16.12;59.54;99511.94;339937;28;4506;-82
2023/05/29 00:02:38;;;;;;;6.07;3.45;;;;;;;16.13;59.51;99520.66;338902;28;18069;-81
2023/05/29 00:02:50;;;;;;;5.70;3.42;;;;;;;16.12;59.57;99516.34;340752;28;4601;-81
2023/05/29 00:03:04;;;;;;;6.05;3.60;;;;;;;16.13;59.77;99513.63;338225;28;18131;-82
2023/05/29 00:03:19;;;;;;;7.57;3.60;;;;;;;16.14;59.15;99514.47;337835;28;6721;-81
2023/05/29 00:03:32;;;;;;;7.15;3.22;;;;;;;16.13;58.80;99515.41;337345;28;6035;-82
2023/05/29 00:03:45;;;;;;;6.72;3.25;;;;;;;16.13;58.83;99518.03;337464;28;18106;-82
2023/05/29 00:03:57;;;;;;;6.22;3.15;;;;;;;16.10;59.47;99512.97;337610;28;16537;-81
2023/05/29 00:04:12;;;;;;;5.00;3.30;;;;;;;16.11;59.21;99514.63;339247;28;5237;-82
2023/05/29 00:04:24;;;;;;;5.05;3.40;;;;;;;16.12;59.09;99522.44;332517;29;18157;-82
2023/05/29 00:04:37;;;;;;;5.22;3.35;;;;;;;16.12;59.13;99519.81;335183;29;4840;-81
2023/05/29 00:04:50;;;;;;;4.68;3.28;;;;;;;16.13;59.04;99512.78;331111;29;18012;-81
2023/05/29 00:05:03;;;;;;;5.25;3.28;;;;;;;16.13;59.16;99516.22;331348;28;17436;-81
2023/05/29 00:05:16;;;;;;;5.57;3.25;;;;;;;16.14;58.93;99514.47;334002;29;5118;-82
2023/05/29 00:05:28;;;;;;;5.68;3.42;;;;;;;16.14;58.87;99520.56;330630;29;17834;-82
2023/05/29 00:05:42;;;;;;;5.25;3.25;;;;;;;16.15;59.07;99513.53;334272;29;4634;-82
2023/05/29 00:05:54;;;;;;;7.15;3.15;;;;;;;16.11;59.18;99519.88;330578;28;18098;-82
2023/05/29 00:06:06;;;;;;;7.40;3.15;;;;;;;16.11;58.93;99519.88;332164;28;5888;-82
2023/05/29 00:06:19;;;;;;;7.28;3.40;;;;;;;16.10;58.86;99515.59;331609;28;18398;-82
2023/05/29 00:06:31;;;;;;;7.20;3.20;;;;;;;16.09;58.76;99519.13;334067;28;4655;-82
2023/05/29 00:06:43;;;;;;;7.20;3.22;;;;;;;16.05;59.28;99515.00;332150;28;18187;-82
2023/05/29 00:06:55;;;;;;;5.43;3.30;;;;;;;16.06;59.25;99511.47;335133;28;4522;-82
2023/05/29 00:07:07;;;;;;;5.13;3.17;;;;;;;16.07;59.00;99513.13;333451;28;18316;-82
2023/05/29 00:07:19;;;;;;;5.35;3.33;;;;;;;16.08;58.94;99517.47;335108;29;4838;-82
2023/05/29 00:07:35;;;;;;;6.68;3.40;;;;;;;16.11;58.78;99519.88;335284;29;4528;-82
2023/05/29 00:07:48;;;;;;;6.43;3.35;;;;;;;16.12;58.86;99511.09;332947;29;18523;-82
2023/05/29 00:08:01;;;;;;;5.72;3.20;;;;;;;16.12;58.83;99519.81;334324;28;17251;-81
2023/05/29 00:08:13;;;;;;;5.38;3.22;;;;;;;16.13;58.94;99512.78;332841;28;18566;-82
2023/05/29 00:08:24;;;;;;;5.20;3.20;;;;;;;16.10;58.75;99513.81;333553;28;4489;-82
2023/05/29 00:08:36;;;;;;;5.25;3.03;;;;;;;16.12;58.56;99516.34;333679;28;10627;-82
2023/05/29 00:08:48;;;;;;;5.95;3.28;;;;;;;16.10;58.53;99515.59;332330;28;17943;-81
2023/05/29 00:09:00;;;;;;;5.50;3.38;;;;;;;16.10;58.42;99519.06;331695;28;4520;-82
2023/05/29 00:09:13;;;;;;;5.28;3.38;;;;;;;16.11;58.46;99509.41;330368;28;16338;-82
2023/05/29 00:09:25;;;;;;;5.05;3.35;;;;;;;16.12;58.73;99518.97;332623;28;5151;-81
2023/05/29 00:09:37;;;;;;;5.03;3.13;;;;;;;16.14;58.77;99515.31;329797;28;11462;-81
2023/05/29 00:09:49;;;;;;;5.50;3.40;;;;;;;16.14;58.57;99515.31;332707;28;5190;-81
2023/05/29 00:10:01;;;;;;;5.95;3.58;;;;;;;16.15;58.48;99514.38;334138;28;4541;-82
2023/05/29 00:10:13;;;;;;;5.90;3.38;;;;;;;16.14;58.63;99519.72;333678;28;18022;-82
2023/05/29 00:10:25;;;;;;;5.00;3.20;;;;;;;16.13;58.66;99512.78;340371;28;4510;-82
2023/05/29 00:10:37;;;;;;;5.28;3.05;;;;;;;16.11;58.36;99514.63;338069;28;9222;-82
2023/05/29 00:10:49;;;;;;;5.47;3.15;;;;;;;16.10;58.15;99513.81;341924;28;4800;-82
2023/05/29 00:11:01;;;;;;;6.13;3.28;;;;;;;16.10;58.55;99520.84;341011;28;4691;-82
2023/05/29 00:11:13;;;;;;;6.78;3.53;;;;;;;16.10;58.37;99519.06;333601;28;18261;-82
2023/05/29 00:11:25;;;;;;;7.07;3.70;;;;;;;16.10;58.62;99518.22;334510;29;4513;-82
2023/05/29 00:11:37;;;;;;;7.38;3.70;;;;;;;16.09;58.47;99511.25;331600;28;16440;-82
2023/05/29 00:11:50;;;;;;;5.78;3.60;;;;;;;16.08;58.27;99514.84;333118;28;4557;-82
2023/05/29 00:12:02;;;;;;;6.10;3.47;;;;;;;16.08;58.10;99515.66;331874;28;17593;-81
2023/05/29 00:12:15;;;;;;;6.22;3.38;;;;;;;16.09;58.07;99512.09;334904;28;4498;-82
2023/05/29 00:12:26;;;;;;;7.43;3.30;;;;;;;16.12;58.32;99511.09;334618;28;5979;-82
2023/05/29 00:12:39;;;;;;;8.40;3.30;;;;;;;16.05;58.45;99517.63;330011;29;18744;-82
2023/05/29 00:12:51;;;;;;;8.20;3.30;;;;;;;16.04;58.56;99515.94;333865;29;5053;-82
2023/05/29 00:13:03;;;;;;;7.35;3.28;;;;;;;16.04;58.40;99518.56;331290;28;18172;-82
2023/05/29 00:13:17;;;;;;;4.60;3.28;;;;;;;15.98;58.71;99510.09;330699;29;7401;-82
2023/05/29 00:13:29;;;;;;;5.32;3.53;;;;;;;16.01;58.70;99513.47;332377;29;4770;-82
2023/05/29 00:13:41;;;;;;;6.90;3.53;;;;;;;16.05;58.69;99512.38;333912;29;4477;-82
2023/05/29 00:13:56;;;;;;;8.15;3.47;;;;;;;16.07;58.69;99515.75;332885;29;16430;-82
2023/05/29 00:14:13;;;;;;;7.65;3.40;;;;;;;16.10;58.75;99513.81;334031;29;17772;-82
2023/05/29 00:14:26;;;;;;;5.57;3.38;;;;;;;16.12;58.51;99517.19;332795;28;17871;-82
2023/05/29 00:14:38;;;;;;;5.90;3.60;;;;;;;16.14;58.37;99514.47;332424;28;18669;-81
2023/05/29 00:14:50;;;;;;;6.70;3.50;;;;;;;16.12;58.34;99518.97;339719;28;5335;-81
2023/05/29 00:15:03;;;;;;;7.18;3.50;;;;;;;16.11;58.47;99514.63;337491;28;10794;-82
2023/05/29 00:15:15;;;;;;;6.72;3.65;;;;;;;16.06;58.53;99516.69;341977;28;18261;-82
2023/05/29 00:15:28;;;;;;;6.30;3.70;;;;;;;16.06;58.48;99508.84;338023;28;16775;-82
2023/05/29 00:15:40;;;;;;;6.57;3.83;;;;;;;16.06;58.78;99511.47;341066;28;4552;-82
2023/05/29 00:15:52;;;;;;;7.50;3.70;;;;;;;16.08;58.91;99509.59;340903;28;8239;-82
2023/05/29 00:16:04;;;;;;;6.20;3.45;;;;;;;16.08;58.56;99513.06;338963;28;17555;-82
2023/05/29 00:16:17;;;;;;;6.13;3.40;;;;;;;16.10;58.88;99512.97;341691;28;4490;-82
2023/05/29 00:16:29;;;;;;;5.88;3.35;;;;;;;16.12;58.72;99516.34;338065;28;18798;-82
2023/05/29 00:16:43;;;;;;;6.10;3.40;;;;;;;16.12;58.72;99517.19;337344;28;4697;-81
2023/05/29 00:16:56;;;;;;;6.28;3.50;;;;;;;16.12;58.51;99516.34;332892;29;17213;-82
2023/05/29 00:17:09;;;;;;;6.78;3.60;;;;;;;16.10;58.84;99512.97;331982;28;18659;-82
2023/05/29 00:17:21;;;;;;;7.25;3.70;;;;;;;16.08;58.88;99515.66;333449;28;4657;-82
2023/05/29 00:17:33;;;;;;;7.70;3.70;;;;;;;16.04;58.95;99513.31;331838;29;18102;-82
2023/05/29 00:17:46;;;;;;;7.40;3.72;;;;;;;16.02;58.81;99516.03;334121;29;4769;-82
2023/05/29 00:17:58;;;;;;;6.75;3.60;;;;;;;16.03;59.05;99516.84;329919;29;18020;-82
2023/05/29 00:18:10;;;;;;;6.65;3.60;;;;;;;15.98;59.66;99515.34;331934;29;4548;-82
2023/05/29 00:18:22;;;;;;;6.35;3.35;;;;;;;16.00;59.49;99517.03;330563;29;8506;-82
2023/05/29 00:18:35;;;;;;;6.13;3.42;;;;;;;16.00;59.34;99514.41;333387;29;4660;-82
2023/05/29 00:18:47;;;;;;;6.53;3.70;;;;;;;16.00;59.20;99512.66;328993;29;9994;-82
2023/05/29 00:18:59;;;;;;;6.60;3.80;;;;;;;15.98;59.36;99515.34;332112;29;4583;-82
2023/05/29 00:19:11;;;;;;;4.93;3.47;;;;;;;15.98;59.57;99510.09;331532;29;4520;-82
2023/05/29 00:19:24;;;;;;;4.50;3.25;;;;;;;16.03;59.52;99515.06;329914;29;18017;-82
2023/05/29 00:19:36;;;;;;;4.82;3.30;;;;;;;16.02;59.25;99509.91;331962;29;5815;-82
2023/05/29 00:19:49;;;;;;;5.00;3.28;;;;;;;16.03;59.31;99516.84;328817;29;18062;-82
2023/05/29 00:20:06;;;;;;;5.13;3.20;;;;;;;16.01;59.31;99513.47;331374;29;4526;-82
2023/05/29 00:20:19;;;;;;;5.25;3.20;;;;;;;15.98;59.31;99515.34;331015;29;16709;-82
2023/05/29 00:20:33;;;;;;;5.28;3.35;;;;;;;16.00;59.30;99519.66;334860;28;4500;-82
2023/05/29 00:20:46;;;;;;;5.10;3.40;;;;;;;16.02;59.82;99509.91;331463;28;17777;-82
2023/05/29 00:20:58;;;;;;;5.77;3.40;;;;;;;16.02;59.38;99505.53;332752;28;17591;-82
2023/05/29 00:21:12;;;;;;;6.90;3.53;;;;;;;16.05;59.45;99515.00;334189;29;4526;-82
2023/05/29 00:21:25;;;;;;;6.85;3.47;;;;;;;16.06;59.07;99508.84;332167;28;18471;-82
2023/05/29 00:21:37;;;;;;;5.70;3.22;;;;;;;16.03;59.70;99511.63;333936;28;10221;-82
2023/05/29 00:21:49;;;;;;;7.72;3.30;;;;;;;15.96;60.55;99511.97;332864;29;17685;-82
2023/05/29 00:22:01;;;;;;;7.82;3.30;;;;;;;15.94;60.82;99511.22;334290;28;4516;-82
2023/05/29 00:22:13;;;;;;;7.15;3.33;;;;;;;15.95;60.20;99515.50;331247;28;18651;-82
2023/05/29 00:22:28;;;;;;;6.38;3.40;;;;;;;15.97;60.12;99513.66;334217;28;4842;-82
2023/05/29 00:22:40;;;;;;;5.18;3.33;;;;;;;15.97;60.45;99508.41;332675;28;17548;-82
2023/05/29 00:22:52;;;;;;;5.85;3.30;;;;;;;16.00;60.14;99511.78;331344;28;4666;-82
2023/05/29 00:23:05;;;;;;;6.45;3.20;;;;;;;16.00;59.93;99517.03;332512;28;18174;-82
2023/05/29 00:23:17;;;;;;;5.93;3.10;;;;;;;16.03;59.74;99511.63;331319;28;16357;-82
2023/05/29 00:23:30;;;;;;;6.57;3.40;;;;;;;15.97;60.49;99511.03;333445;28;4565;-82
2023/05/29 00:23:42;;;;;;;6.38;3.60;;;;;;;16.02;60.36;99515.16;335918;28;4535;-82
2023/05/29 00:23:56;;;;;;;7.18;3.70;;;;;;;16.04;60.03;99508.91;331787;28;17621;-82
2023/05/29 00:24:08;;;;;;;6.57;3.63;;;;;;;16.04;59.84;99508.09;331719;28;18037;-82
2023/05/29 00:24:20;;;;;;;6.07;3.50;;;;;;;16.05;59.71;99515.00;333512;28;4525;-82
2023/05/29 00:24:32;;;;;;;6.18;3.67;;;;;;;16.06;59.79;99511.47;330373;28;9814;-82
2023/05/29 00:24:44;;;;;;;5.75;3.47;;;;;;;16.06;59.58;99503.59;332864;28;5026;-82
2023/05/29 00:24:56;;;;;;;4.93;3.28;;;;;;;16.07;59.32;99507.88;336600;28;4485;-82
2023/05/29 00:25:08;;;;;;;4.30;3.22;;;;;;;16.06;59.06;99512.28;339409;28;18243;-82
2023/05/29 00:25:20;;;;;;;4.40;3.20;;;;;;;16.04;59.19;99508.91;336382;28;5175;-82
2023/05/29 00:25:32;;;;;;;5.13;3.40;;;;;;;16.04;59.08;99511.53;333609;28;17504;-81
2023/05/29 00:25:44;;;;;;;5.68;3.50;;;;;;;16.02;58.98;99515.16;336094;28;4492;-81
2023/05/29 00:25:56;;;;;;;6.45;3.65;;;;;;;16.00;58.96;99511.78;339460;28;4548;-82
2023/05/29 00:26:08;;;;;;;7.78;3.70;;;;;;;15.93;59.45;99509.50;338813;28;16779;-82
2023/05/29 00:26:20;;;;;;;9.40;3.63;;;;;;;15.89;59.53;99515.84;336568;29;4501;-82
2023/05/29 00:26:32;;;;;;;9.32;3.50;;;;;;;15.90;59.69;99511.50;333828;29;16768;-82
2023/05/29 00:26:45;;;;;;;5.93;3.30;;;;;;;15.92;60.45;99509.63;336644;29;4529;-82
2023/05/29 00:26:57;;;;;;;6.80;3.22;;;;;;;15.94;59.90;99508.59;336613;28;4533;-82
2023/05/29 00:27:09;;;;;;;7.25;3.38;;;;;;;15.97;59.86;99507.56;341598;28;4525;-82
2023/05/29 00:27:21;;;;;;;6.35;3.50;;;;;;;15.98;59.57;99504.88;336585;28;4664;-82
2023/05/29 00:27:34;;;;;;;5.88;3.40;;;;;;;16.00;59.70;99507.41;334273;28;18979;-82
2023/05/29 00:27:46;;;;;;;7.35;3.63;;;;;;;15.99;59.57;99505.69;335560;29;4534;-82
2023/05/29 00:27:58;;;;;;;7.25;3.60;;;;;;;15.95;59.32;99505.03;333088;29;18072;-82
2023/05/29 00:28:12;;;;;;;7.35;3.47;;;;;;;15.96;59.08;99508.50;333640;29;4754;-82
2023/05/29 00:28:24;;;;;;;7.13;3.65;;;;;;;15.89;59.17;99508.00;330681;29;17770;-82
2023/05/29 00:28:36;;;;;;;6.47;3.80;;;;;;;15.91;59.27;99508.75;333943;28;4485;-82
2023/05/29 00:28:48;;;;;;;6.00;3.55;;;;;;;15.92;59.23;99507.84;329691;29;18446;-82
2023/05/29 00:29:00;;;;;;;5.70;3.55;;;;;;;15.92;58.94;99510.47;333023;29;4646;-82
2023/05/29 00:29:13;;;;;;;5.20;3.55;;;;;;;15.86;59.32;99505.56;331009;29;8365;-82
2023/05/29 00:29:25;;;;;;;4.67;3.53;;;;;;;15.83;59.55;99507.50;334557;29;4490;-82
2023/05/29 00:29:37;;;;;;;4.47;3.38;;;;;;;15.79;59.50;99506.84;333173;29;6640;-82
2023/05/29 00:29:49;;;;;;;6.03;3.60;;;;;;;15.79;59.32;99509.44;335141;29;4479;-82
2023/05/29 00:30:03;;;;;;;7.07;3.72;;;;;;;15.80;59.15;99505.91;336096;28;4510;-82
2023/05/29 00:30:17;;;;;;;6.32;3.40;;;;;;;15.82;59.49;99508.47;332170;29;18176;-82
2023/05/29 00:30:29;;;;;;;5.70;3.25;;;;;;;15.80;59.54;99511.16;333718;28;18057;-82
2023/05/29 00:30:41;;;;;;;5.80;3.33;;;;;;;15.80;59.92;99505.91;336468;28;4561;-82
2023/05/29 00:30:53;;;;;;;6.43;3.45;;;;;;;15.81;59.78;99507.59;333266;28;16449;-82
2023/05/29 00:31:05;;;;;;;6.53;3.65;;;;;;;15.83;60.04;99510.97;336556;28;4497;-82
2023/05/29 00:31:17;;;;;;;7.10;3.78;;;;;;;15.85;59.47;99511.72;336293;28;4539;-82
2023/05/29 00:31:30;;;;;;;6.88;3.70;;;;;;;15.84;59.61;99507.44;334703;28;18484;-82
2023/05/29 00:31:42;;;;;;;5.57;3.47;;;;;;;15.85;59.61;99511.72;333880;28;11003;-82
2023/05/29 00:31:56;;;;;;;5.63;3.60;;;;;;;15.86;59.38;99507.34;337535;28;5408;-81
2023/05/29 00:32:08;;;;;;;5.57;3.60;;;;;;;15.87;59.22;99509.84;335828;28;18105;-81
2023/05/29 00:32:20;;;;;;;7.68;3.70;;;;;;;15.88;59.42;99511.56;335898;28;4754;-82
2023/05/29 00:32:32;;;;;;;8.15;3.70;;;;;;;15.89;59.10;99515.03;336254;28;4653;-82
2023/05/29 00:32:45;;;;;;;7.30;3.60;;;;;;;15.89;59.29;99510.63;333402;28;18969;-81
2023/05/29 00:32:57;;;;;;;6.30;3.60;;;;;;;15.89;58.99;99510.63;331948;29;7170;-82
2023/05/29 00:33:10;;;;;;;5.93;3.50;;;;;;;15.88;59.02;99506.31;334224;29;4675;-82
2023/05/29 00:33:22;;;;;;;6.32;3.63;;;;;;;15.87;59.26;99512.47;334308;29;4592;-82
2023/05/29 00:33:34;;;;;;;5.78;3.55;;;;;;;15.85;59.31;99506.47;329920;29;17952;-82
2023/05/29 00:33:46;;;;;;;6.13;3.65;;;;;;;15.84;59.15;99512.66;338033;28;4566;-81
2023/05/29 00:33:58;;;;;;;5.95;3.60;;;;;;;15.83;59.20;99510.97;335019;28;16084;-81
2023/05/29 00:34:10;;;;;;;6.10;3.53;;;;;;;15.81;59.36;99507.59;333838;28;4499;-81
2023/05/29 00:34:23;;;;;;;7.43;3.65;;;;;;;15.81;59.41;99504.97;334355;28;4789;-81
2023/05/29 00:34:35;;;;;;;7.82;3.72;;;;;;;15.80;59.53;99505.91;330158;29;17367;-81
2023/05/29 00:34:47;;;;;;;7.38;3.63;;;;;;;15.80;59.49;99505.91;332577;29;4504;-81
2023/05/29 00:34:59;;;;;;;7.00;3.45;;;;;;;15.79;59.80;99509.44;329880;29;19435;-81
2023/05/29 00:35:11;;;;;;;6.55;3.50;;;;;;;15.77;59.67;99504.31;332415;29;5806;-82
2023/05/29 00:35:23;;;;;;;6.22;3.50;;;;;;;15.75;60.06;99503.56;331080;29;19077;-81
2023/05/29 00:35:35;;;;;;;7.80;3.80;;;;;;;15.74;59.70;99507.09;333900;29;4527;-81
2023/05/29 00:35:47;;;;;;;7.45;3.70;;;;;;;15.71;59.57;99507.22;333480;28;4629;-81
2023/05/29 00:35:59;;;;;;;5.93;3.53;;;;;;;15.71;59.61;99506.38;329499;29;18319;-81
2023/05/29 00:36:11;;;;;;;5.13;3.40;;;;;;;15.69;59.95;99503.00;332786;28;4655;-81
2023/05/29 00:36:23;;;;;;;5.68;3.50;;;;;;;15.68;60.07;99506.56;331157;28;16818;-81
2023/05/29 00:36:36;;;;;;;5.38;3.63;;;;;;;15.65;60.27;99507.56;334055;28;5001;-81
2023/05/29 00:36:49;;;;;;;5.50;3.50;;;;;;;15.62;60.62;99507.75;331628;28;17947;-81
2023/05/29 00:37:01;;;;;;;5.43;3.30;;;;;;;15.56;60.68;99508.94;334020;28;4688;-82
2023/05/29 00:37:13;;;;;;;5.93;3.35;;;;;;;15.57;60.49;99508.03;331362;28;17664;-81
2023/05/29 00:37:25;;;;;;;6.43;3.50;;;;;;;15.56;60.30;99508.09;333097;28;4614;-82
2023/05/29 00:37:37;;;;;;;7.03;3.80;;;;;;;15.56;60.35;99503.69;331441;28;9759;-82
2023/05/29 00:37:50;;;;;;;6.90;3.92;;;;;;;15.56;60.36;99510.72;332477;28;4525;-81
2023/05/29 00:38:02;;;;;;;6.15;3.88;;;;;;;15.53;60.42;99506.50;334604;28;4528;-81
2023/05/29 00:38:14;;;;;;;5.60;3.70;;;;;;;15.53;60.08;99509.13;330331;28;18094;-81
2023/05/29 00:38:26;;;;;;;5.35;3.60;;;;;;;15.52;60.58;99514.44;333813;28;6664;-81
2023/05/29 00:38:38;;;;;;;5.50;3.60;;;;;;;15.52;60.46;99512.66;331716;28;10024;-81
2023/05/29 00:38:50;;;;;;;5.43;3.45;;;;;;;15.51;60.25;99505.75;334176;28;5020;-81
2023/05/29 00:39:02;;;;;;;6.18;3.40;;;;;;;15.51;60.43;99510.97;334470;28;4480;-81
2023/05/29 00:39:15;;;;;;;6.93;3.47;;;;;;;15.50;60.28;99504.03;330974;28;18180;-81
2023/05/29 00:39:27;;;;;;;7.85;3.65;;;;;;;15.49;60.21;99509.34;333118;28;4592;-82
2023/05/29 00:39:42;;;;;;;6.80;3.50;;;;;;;15.48;60.44;99503.28;329977;28;18262;-81
2023/05/29 00:39:54;;;;;;;7.47;3.53;;;;;;;15.47;60.48;99506.81;329870;28;17862;-81
2023/05/29 00:40:07;;;;;;;8.20;3.58;;;;;;;15.48;60.36;99513.75;332661;28;5355;-81
2023/05/29 00:40:19;;;;;;;7.55;3.42;;;;;;;15.49;60.38;99507.59;329413;28;18414;-81
2023/05/29 00:40:31;;;;;;;6.53;3.42;;;;;;;15.47;60.58;99504.19;337003;28;4642;-81
2023/05/29 00:40:43;;;;;;;5.65;3.50;;;;;;;15.41;60.92;99503.69;338753;28;7807;-81
2023/05/29 00:40:55;;;;;;;5.80;3.60;;;;;;;15.45;60.49;99506.06;339895;28;4502;-82
2023/05/29 00:41:07;;;;;;;5.05;3.50;;;;;;;15.45;60.42;99503.44;335508;29;4614;-81
2023/05/29 00:41:19;;;;;;;4.82;3.40;;;;;;;15.47;60.40;99504.19;332155;29;19519;-81
2023/05/29 00:41:31;;;;;;;5.32;3.70;;;;;;;15.48;60.51;99505.06;335422;29;4607;-81
2023/05/29 00:41:43;;;;;;;5.32;3.60;;;;;;;15.47;60.32;99506.81;332825;29;4465;-81
2023/05/29 00:41:55;;;;;;;6.03;3.80;;;;;;;15.47;60.52;99506.81;335225;29;4483;-81
2023/05/29 00:42:07;;;;;;;6.53;3.72;;;;;;;15.43;60.67;99507.91;333955;29;4504;-82
2023/05/29 00:42:19;;;;;;;6.40;3.70;;;;;;;15.44;60.69;99509.63;331165;29;18100;-81
2023/05/29 00:42:31;;;;;;;6.32;3.63;;;;;;;15.43;60.42;99507.91;334022;29;4497;-81
2023/05/29 00:42:43;;;;;;;5.55;3.40;;;;;;;15.44;60.17;99512.25;332232;29;18869;-81
2023/05/29 00:42:55;;;;;;;5.28;3.10;;;;;;;15.46;60.44;99507.75;335211;29;4576;-81
2023/05/29 00:43:07;;;;;;;5.18;3.00;;;;;;;15.49;60.15;99502.38;335242;29;5366;-81
2023/05/29 00:43:22;;;;;;;5.15;3.05;;;;;;;15.49;60.05;99504.97;332492;29;17836;-81
2023/05/29 00:43:34;;;;;;;6.45;3.53;;;;;;;15.49;59.94;99504.13;332997;28;17894;-82
2023/05/29 00:43:46;;;;;;;5.93;3.58;;;;;;;15.49;59.48;99501.50;336573;28;4688;-81
2023/05/29 00:43:58;;;;;;;5.70;3.50;;;;;;;15.50;59.63;99508.44;334917;28;18221;-81
2023/05/29 00:44:10;;;;;;;5.70;3.45;;;;;;;15.49;59.76;99497.13;338078;28;4515;-81
2023/05/29 00:44:22;;;;;;;7.75;3.60;;;;;;;15.51;59.98;99503.13;337386;28;4494;-81
2023/05/29 00:44:35;;;;;;;8.65;3.60;;;;;;;15.51;59.70;99495.25;335076;28;18433;-81
2023/05/29 00:44:47;;;;;;;8.32;3.67;;;;;;;15.50;59.53;99500.59;337235;28;4486;-82
2023/05/29 00:44:59;;;;;;;7.78;3.70;;;;;;;15.45;60.07;99503.44;334870;28;19999;-81
2023/05/29 00:45:13;;;;;;;6.70;3.72;;;;;;;15.47;60.38;99504.19;338617;28;5061;-82
2023/05/29 00:45:26;;;;;;;4.93;3.55;;;;;;;15.45;60.25;99490.34;334544;28;18168;-81
2023/05/29 00:45:38;;;;;;;4.97;3.35;;;;;;;15.39;60.61;99501.16;334669;28;11157;-82
2023/05/29 00:45:50;;;;;;;5.28;3.30;;;;;;;15.39;60.77;99501.16;337393;28;5331;-81
2023/05/29 00:46:02;;;;;;;6.60;3.42;;;;;;;15.29;61.11;99507.81;337556;28;4864;-81
2023/05/29 00:46:16;;;;;;;8.65;3.38;;;;;;;15.33;60.98;99506.72;335107;28;18482;-81
2023/05/29 00:46:30;;;;;;;8.55;3.25;;;;;;;15.36;60.46;99506.56;334999;28;11289;-81
2023/05/29 00:46:42;;;;;;;7.20;3.22;;;;;;;15.39;60.34;99503.78;336674;28;4580;-81
2023/05/29 00:46:54;;;;;;;5.82;3.20;;;;;;;15.41;60.30;99499.28;333503;28;18288;-81
2023/05/29 00:47:06;;;;;;;5.82;3.20;;;;;;;15.42;60.37;99501.00;336202;28;5091;-82
2023/05/29 00:47:20;;;;;;;5.80;3.47;;;;;;;15.44;60.13;99504.38;336716;28;18450;-81
2023/05/29 00:47:32;;;;;;;5.30;3.60;;;;;;;15.45;60.32;99500.81;335438;29;4526;-82
2023/05/29 00:47:45;;;;;;;6.00;3.58;;;;;;;15.45;60.36;99500.81;331102;29;18608;-81
2023/05/29 00:47:58;;;;;;;7.28;3.58;;;;;;;15.46;60.44;99499.91;334591;28;6628;-81
2023/05/29 00:48:10;;;;;;;6.95;3.53;;;;;;;15.44;60.42;99504.38;333758;29;17930;-81
2023/05/29 00:48:22;;;;;;;4.93;3.50;;;;;;;15.37;60.92;99500.38;333777;28;4549;-81
2023/05/29 00:48:34;;;;;;;6.05;3.60;;;;;;;15.39;60.66;99506.38;331716;28;18454;-81
2023/05/29 00:48:47;;;;;;;6.32;3.60;;;;;;;15.38;60.83;99504.72;333842;28;4551;-82
2023/05/29 00:49:00;;;;;;;6.00;3.30;;;;;;;15.37;60.84;99498.66;332658;28;18692;-82
2023/05/29 00:49:13;;;;;;;5.72;3.15;;;;;;;15.39;60.21;99498.53;335025;28;4485;-81
2023/05/29 00:49:25;;;;;;;5.75;3.42;;;;;;;15.40;60.51;99502.03;332017;28;18280;-82
2023/05/29 00:49:38;;;;;;;5.75;3.60;;;;;;;15.38;60.48;99499.47;332365;29;10649;-81
2023/05/29 00:49:51;;;;;;;5.82;3.58;;;;;;;15.36;60.65;99498.72;333111;28;18222;-82
2023/05/29 00:50:04;;;;;;;7.28;3.78;;;;;;;15.31;61.52;99504.22;331142;29;18866;-81
2023/05/29 00:50:17;;;;;;;7.95;3.70;;;;;;;15.31;61.36;99501.59;334853;28;5244;-82
2023/05/29 00:50:30;;;;;;;7.45;3.50;;;;;;;15.32;61.47;99499.81;333173;28;18356;-81
2023/05/29 00:50:43;;;;;;;7.32;3.40;;;;;;;15.32;60.98;99503.28;333923;29;4533;-82
2023/05/29 00:50:56;;;;;;;5.50;3.40;;;;;;;15.33;61.02;99501.50;329974;29;18266;-82
2023/05/29 00:51:10;;;;;;;4.97;3.35;;;;;;;15.34;61.04;99500.56;330459;29;16449;-81
2023/05/29 00:51:22;;;;;;;5.05;3.40;;;;;;;15.33;61.03;99501.50;333993;29;4563;-81
2023/05/29 00:51:36;;;;;;;5.20;3.55;;;;;;;15.29;61.66;99499.97;332376;28;17888;-81
2023/05/29 00:51:51;;;;;;;6.00;3.67;;;;;;;15.31;61.18;99500.72;332765;28;17014;-81
2023/05/29 00:52:06;;;;;;;6.30;3.78;;;;;;;15.32;61.12;99494.56;333485;28;7909;-81
2023/05/29 00:52:19;;;;;;;6.95;3.80;;;;;;;15.32;60.92;99505.06;333046;28;17733;-81
2023/05/29 00:52:32;;;;;;;7.13;3.72;;;;;;;15.32;60.77;99494.56;334830;29;4558;-81
2023/05/29 00:52:45;;;;;;;6.45;3.67;;;;;;;15.31;60.59;99492.88;333356;28;18380;-81
2023/05/29 00:53:00;;;;;;;7.60;3.50;;;;;;;15.33;60.51;99493.63;336538;29;4525;-81
2023/05/29 00:53:13;;;;;;;7.28;3.33;;;;;;;15.35;60.44;99499.63;335192;28;17733;-81
2023/05/29 00:53:25;;;;;;;5.30;3.22;;;;;;;15.34;60.56;99495.34;334347;28;16284;-82
2023/05/29 00:53:40;;;;;;;5.55;3.30;;;;;;;15.34;60.30;99503.19;336952;28;4541;-81
2023/05/29 00:53:53;;;;;;;6.18;3.50;;;;;;;15.29;60.38;99498.22;335163;29;17692;-82
2023/05/29 00:54:07;;;;;;;5.28;3.22;;;;;;;15.31;60.29;99504.22;335482;28;18464;-82
2023/05/29 00:54:27;;;;;;;5.75;3.35;;;;;;;15.31;60.27;99498.09;335823;28;7259;-82
2023/05/29 00:54:39;;;;;;;5.57;3.45;;;;;;;15.30;60.75;99496.44;335172;28;15558;-82
2023/05/29 00:54:52;;;;;;;5.60;3.38;;;;;;;15.29;60.21;99497.34;338946;28;4453;-82
2023/05/29 00:55:04;;;;;;;6.72;3.50;;;;;;;15.26;60.73;99497.53;334614;28;16481;-82
2023/05/29 00:55:17;;;;;;;6.13;3.33;;;;;;;15.18;62.31;99496.16;338570;28;4687;-82
2023/05/29 00:55:30;;;;;;;4.80;3.20;;;;;;;15.16;61.74;99494.56;337408;28;17923;-82
2023/05/29 00:55:42;;;;;;;5.25;3.05;;;;;;;15.17;61.76;99501.47;340088;28;4512;-82
2023/05/29 00:55:55;;;;;;;6.35;3.25;;;;;;;15.19;61.14;99499.63;335193;28;18956;-82
2023/05/29 00:56:07;;;;;;;5.90;3.13;;;;;;;15.21;61.29;99502.16;334280;29;4501;-82
2023/05/29 00:56:20;;;;;;;5.28;3.20;;;;;;;15.22;61.25;99499.47;331127;28;6987;-82
2023/05/29 00:56:35;;;;;;;5.53;3.35;;;;;;;15.25;60.77;99501.94;333344;28;4533;-82
2023/05/29 00:56:47;;;;;;;5.20;3.35;;;;;;;15.25;60.77;99498.44;330960;29;18969;-82
2023/05/29 00:57:02;;;;;;;5.25;3.25;;;;;;;15.27;60.67;99501.81;330144;28;18085;-82
2023/05/29 00:57:16;;;;;;;5.40;3.15;;;;;;;15.25;60.48;99501.06;330056;28;18748;-82
2023/05/29 00:57:29;;;;;;;5.85;3.40;;;;;;;15.25;60.71;99506.31;330711;28;18518;-82
2023/05/29 00:57:42;;;;;;;6.00;3.53;;;;;;;15.24;60.72;99497.59;332862;28;4642;-82
2023/05/29 00:57:55;;;;;;;7.88;3.42;;;;;;;15.23;60.97;99497.69;331085;28;18866;-82
2023/05/29 00:58:07;;;;;;;8.18;3.58;;;;;;;15.10;61.53;99494.91;333662;29;4524;-82
2023/05/29 00:58:20;;;;;;;9.20;3.70;;;;;;;15.00;62.19;99497.16;331949;28;17039;-82
2023/05/29 00:58:33;;;;;;;8.57;3.70;;;;;;;15.06;61.54;99499.44;336913;28;4494;-82
2023/05/29 00:58:45;;;;;;;7.70;3.75;;;;;;;15.09;61.61;99493.19;333864;28;18188;-82
2023/05/29 00:58:57;;;;;;;5.47;3.60;;;;;;;15.14;61.51;99499.03;336153;28;4738;-82
2023/05/29 00:59:12;;;;;;;5.78;3.42;;;;;;;15.16;61.36;99498.03;333647;28;18012;-82
2023/05/29 00:59:29;;;;;;;5.75;3.33;;;;;;;15.17;61.33;99502.34;333493;28;19223;-82
2023/05/29 00:59:41;;;;;;;6.22;3.75;;;;;;;15.16;61.54;99497.19;331864;28;18495;-82
2023/05/29 00:59:54;;;;;;;6.90;3.78;;;;;;;15.14;61.53;99502.50;333027;28;4597;-82
2023/05/29 01:00:09;;;;;;;6.88;3.47;;;;;;;15.16;61.28;99497.19;335720;28;4480;-82
2023/05/29 01:00:21;;;;;;;6.40;3.22;;;;;;;15.13;61.37;99498.19;333122;28;17812;-82
2023/05/29 01:00:35;;;;;;;6.03;3.10;;;;;;;15.14;61.66;99497.25;333191;28;17870;-82